sensor_id;sensor_type;location;lat;lon;timestamp;P1;durP1;ratioP1;P2;durP2;ratioP2
22072;SDS011;11202;50.916;4.698;2022-09-17T00:01:21;12.25;;;2.00;;
22072;SDS011;11202;50.916;4.698;2022-09-17T00:03:52;12.57;;;2.55;;
22072;SDS011;11202;50.916;4.698;2022-09-17T00:06:20;14.43;;;2.67;;
22072;SDS011;11202;50.916;4.698;2022-09-17T00:08:46;10.38;;;1.80;;
22072;SDS011;11202;50.916;4.698;2022-09-17T00:11:15;7.68;;;2.10;;
22072;SDS011;11202;50.916;4.698;2022-09-17T00:13:45;10.43;;;2.00;;
22072;SDS011;11202;50.916;4.698;2022-09-17T00:16:11;10.85;;;2.30;;
22072;SDS011;11202;50.916;4.698;2022-09-17T00:18:45;12.20;;;1.88;;
22072;SDS011;11202;50.916;4.698;2022-09-17T00:21:15;10.70;;;1.77;;
22072;SDS011;11202;50.916;4.698;2022-09-17T00:23:42;10.27;;;2.10;;
22072;SDS011;11202;50.916;4.698;2022-09-17T00:26:11;8.68;;;2.00;;
22072;SDS011;11202;50.916;4.698;2022-09-17T00:28:40;14.68;;;2.38;;
22072;SDS011;11202;50.916;4.698;2022-09-17T00:31:12;8.40;;;2.05;;
22072;SDS011;11202;50.916;4.698;2022-09-17T00:33:38;13.13;;;2.00;;
22072;SDS011;11202;50.916;4.698;2022-09-17T00:36:04;12.40;;;3.00;;
22072;SDS011;11202;50.916;4.698;2022-09-17T00:38:33;12.80;;;2.40;;
22072;SDS011;11202;50.916;4.698;2022-09-17T00:41:00;12.73;;;2.70;;
22072;SDS011;11202;50.916;4.698;2022-09-17T00:48:47;11.15;;;2.03;;
22072;SDS011;11202;50.916;4.698;2022-09-17T00:51:15;10.73;;;2.03;;
22072;SDS011;11202;50.916;4.698;2022-09-17T00:53:44;10.63;;;2.20;;
22072;SDS011;11202;50.916;4.698;2022-09-17T00:56:31;9.05;;;2.38;;
22072;SDS011;11202;50.916;4.698;2022-09-17T00:59:01;18.67;;;3.33;;
22072;SDS011;11202;50.916;4.698;2022-09-17T01:01:28;11.18;;;2.25;;
22072;SDS011;11202;50.916;4.698;2022-09-17T01:03:54;11.73;;;3.47;;
22072;SDS011;11202;50.916;4.698;2022-09-17T01:25:22;15.05;;;2.53;;
22072;SDS011;11202;50.916;4.698;2022-09-17T01:36:54;9.85;;;1.98;;
22072;SDS011;11202;50.916;4.698;2022-09-17T01:39:38;12.40;;;2.03;;
22072;SDS011;11202;50.916;4.698;2022-09-17T01:42:19;12.85;;;1.92;;
22072;SDS011;11202;50.916;4.698;2022-09-17T01:47:48;11.00;;;1.70;;
22072;SDS011;11202;50.916;4.698;2022-09-17T01:50:24;15.70;;;1.90;;
22072;SDS011;11202;50.916;4.698;2022-09-17T01:53:28;10.50;;;2.20;;
22072;SDS011;11202;50.916;4.698;2022-09-17T01:56:02;10.75;;;2.38;;
22072;SDS011;11202;50.916;4.698;2022-09-17T01:58:31;14.75;;;2.33;;
22072;SDS011;11202;50.916;4.698;2022-09-17T02:01:02;10.25;;;2.10;;
22072;SDS011;11202;50.916;4.698;2022-09-17T02:08:50;12.45;;;1.83;;
22072;SDS011;11202;50.916;4.698;2022-09-17T02:11:17;15.75;;;3.47;;
22072;SDS011;11202;50.916;4.698;2022-09-17T02:16:48;9.85;;;2.05;;
22072;SDS011;11202;50.916;4.698;2022-09-17T02:19:20;16.27;;;2.35;;
22072;SDS011;11202;50.916;4.698;2022-09-17T02:24:35;11.52;;;2.63;;
22072;SDS011;11202;50.916;4.698;2022-09-17T02:29:40;10.52;;;2.60;;
22072;SDS011;11202;50.916;4.698;2022-09-17T02:32:07;11.95;;;2.58;;
22072;SDS011;11202;50.916;4.698;2022-09-17T02:34:34;14.75;;;2.90;;
22072;SDS011;11202;50.916;4.698;2022-09-17T02:37:03;12.65;;;3.03;;
22072;SDS011;11202;50.916;4.698;2022-09-17T02:39:29;13.63;;;2.53;;
22072;SDS011;11202;50.916;4.698;2022-09-17T02:52:54;13.40;;;2.53;;
22072;SDS011;11202;50.916;4.698;2022-09-17T02:55:35;18.80;;;3.00;;
22072;SDS011;11202;50.916;4.698;2022-09-17T02:58:50;13.75;;;2.50;;
22072;SDS011;11202;50.916;4.698;2022-09-17T03:00:59;18.13;;;3.13;;
22072;SDS011;11202;50.916;4.698;2022-09-17T03:03:37;16.40;;;2.88;;
22072;SDS011;11202;50.916;4.698;2022-09-17T03:06:07;16.30;;;2.97;;
22072;SDS011;11202;50.916;4.698;2022-09-17T03:08:35;18.20;;;2.47;;
22072;SDS011;11202;50.916;4.698;2022-09-17T03:11:09;17.77;;;2.92;;
22072;SDS011;11202;50.916;4.698;2022-09-17T03:13:36;16.85;;;2.97;;
22072;SDS011;11202;50.916;4.698;2022-09-17T03:16:05;16.50;;;3.45;;
22072;SDS011;11202;50.916;4.698;2022-09-17T03:18:33;16.85;;;3.20;;
22072;SDS011;11202;50.916;4.698;2022-09-17T03:20:59;14.88;;;2.63;;
22072;SDS011;11202;50.916;4.698;2022-09-17T03:23:25;23.02;;;3.35;;
22072;SDS011;11202;50.916;4.698;2022-09-17T03:25:52;14.32;;;2.60;;
22072;SDS011;11202;50.916;4.698;2022-09-17T03:28:20;18.38;;;3.35;;
22072;SDS011;11202;50.916;4.698;2022-09-17T03:30:45;10.50;;;2.70;;
22072;SDS011;11202;50.916;4.698;2022-09-17T03:33:13;25.30;;;2.70;;
22072;SDS011;11202;50.916;4.698;2022-09-17T03:35:43;17.75;;;2.90;;
22072;SDS011;11202;50.916;4.698;2022-09-17T03:38:09;18.08;;;2.75;;
22072;SDS011;11202;50.916;4.698;2022-09-17T03:40:35;13.20;;;3.08;;
22072;SDS011;11202;50.916;4.698;2022-09-17T03:43:01;21.25;;;2.78;;
22072;SDS011;11202;50.916;4.698;2022-09-17T03:45:30;16.13;;;2.53;;
22072;SDS011;11202;50.916;4.698;2022-09-17T03:47:56;12.32;;;2.58;;
22072;SDS011;11202;50.916;4.698;2022-09-17T03:50:22;17.50;;;3.20;;
22072;SDS011;11202;50.916;4.698;2022-09-17T03:52:47;15.40;;;2.85;;
22072;SDS011;11202;50.916;4.698;2022-09-17T03:55:16;20.67;;;3.08;;
22072;SDS011;11202;50.916;4.698;2022-09-17T03:57:41;20.48;;;3.30;;
22072;SDS011;11202;50.916;4.698;2022-09-17T04:00:10;17.60;;;2.70;;
22072;SDS011;11202;50.916;4.698;2022-09-17T04:02:36;14.50;;;2.63;;
22072;SDS011;11202;50.916;4.698;2022-09-17T04:05:02;17.20;;;2.50;;
22072;SDS011;11202;50.916;4.698;2022-09-17T04:07:29;20.15;;;3.15;;
22072;SDS011;11202;50.916;4.698;2022-09-17T04:09:54;22.42;;;2.50;;
22072;SDS011;11202;50.916;4.698;2022-09-17T04:12:23;17.50;;;3.40;;
22072;SDS011;11202;50.916;4.698;2022-09-17T04:14:49;15.57;;;2.55;;
22072;SDS011;11202;50.916;4.698;2022-09-17T04:17:14;10.35;;;2.53;;
22072;SDS011;11202;50.916;4.698;2022-09-17T04:19:42;17.48;;;2.88;;
22072;SDS011;11202;50.916;4.698;2022-09-17T04:22:08;15.18;;;3.13;;
22072;SDS011;11202;50.916;4.698;2022-09-17T04:24:34;20.13;;;3.20;;
22072;SDS011;11202;50.916;4.698;2022-09-17T04:27:02;19.67;;;3.00;;
22072;SDS011;11202;50.916;4.698;2022-09-17T04:29:27;24.00;;;3.33;;
22072;SDS011;11202;50.916;4.698;2022-09-17T04:31:53;21.50;;;4.20;;
22072;SDS011;11202;50.916;4.698;2022-09-17T04:34:18;22.33;;;3.53;;
22072;SDS011;11202;50.916;4.698;2022-09-17T04:36:44;19.05;;;2.78;;
22072;SDS011;11202;50.916;4.698;2022-09-17T04:39:12;17.75;;;2.83;;
22072;SDS011;11202;50.916;4.698;2022-09-17T04:41:38;18.17;;;3.10;;
22072;SDS011;11202;50.916;4.698;2022-09-17T04:44:04;19.45;;;3.63;;
22072;SDS011;11202;50.916;4.698;2022-09-17T04:46:32;19.67;;;3.65;;
22072;SDS011;11202;50.916;4.698;2022-09-17T04:48:58;19.70;;;3.40;;
22072;SDS011;11202;50.916;4.698;2022-09-17T04:51:24;20.50;;;4.50;;
22072;SDS011;11202;50.916;4.698;2022-09-17T04:53:49;28.30;;;3.58;;
22072;SDS011;11202;50.916;4.698;2022-09-17T04:56:17;22.58;;;3.60;;
22072;SDS011;11202;50.916;4.698;2022-09-17T04:58:43;26.63;;;3.30;;
22072;SDS011;11202;50.916;4.698;2022-09-17T05:01:08;19.45;;;3.30;;
22072;SDS011;11202;50.916;4.698;2022-09-17T05:03:34;21.98;;;3.72;;
22072;SDS011;11202;50.916;4.698;2022-09-17T05:06:02;22.10;;;3.85;;
22072;SDS011;11202;50.916;4.698;2022-09-17T05:08:28;29.30;;;5.00;;
22072;SDS011;11202;50.916;4.698;2022-09-17T05:10:53;26.27;;;3.80;;
22072;SDS011;11202;50.916;4.698;2022-09-17T05:13:24;20.65;;;2.97;;
22072;SDS011;11202;50.916;4.698;2022-09-17T05:15:49;17.30;;;3.17;;
22072;SDS011;11202;50.916;4.698;2022-09-17T05:18:20;14.55;;;2.65;;
22072;SDS011;11202;50.916;4.698;2022-09-17T05:20:46;14.43;;;2.85;;
22072;SDS011;11202;50.916;4.698;2022-09-17T05:23:12;14.18;;;2.80;;
22072;SDS011;11202;50.916;4.698;2022-09-17T05:25:38;16.55;;;2.72;;
22072;SDS011;11202;50.916;4.698;2022-09-17T05:28:04;16.77;;;2.17;;
22072;SDS011;11202;50.916;4.698;2022-09-17T05:30:29;14.60;;;2.33;;
22072;SDS011;11202;50.916;4.698;2022-09-17T05:33:02;19.63;;;2.40;;
22072;SDS011;11202;50.916;4.698;2022-09-17T05:35:32;13.23;;;2.30;;
22072;SDS011;11202;50.916;4.698;2022-09-17T05:38:00;14.63;;;2.28;;
22072;SDS011;11202;50.916;4.698;2022-09-17T05:40:29;18.65;;;2.90;;
22072;SDS011;11202;50.916;4.698;2022-09-17T05:42:57;20.95;;;3.80;;
22072;SDS011;11202;50.916;4.698;2022-09-17T05:45:26;18.52;;;3.17;;
22072;SDS011;11202;50.916;4.698;2022-09-17T05:47:53;17.25;;;2.72;;
22072;SDS011;11202;50.916;4.698;2022-09-17T05:50:23;16.85;;;2.67;;
22072;SDS011;11202;50.916;4.698;2022-09-17T05:52:50;22.35;;;2.80;;
22072;SDS011;11202;50.916;4.698;2022-09-17T05:55:17;20.42;;;3.13;;
22072;SDS011;11202;50.916;4.698;2022-09-17T05:57:46;19.73;;;3.60;;
22072;SDS011;11202;50.916;4.698;2022-09-17T06:00:15;17.17;;;4.07;;
22072;SDS011;11202;50.916;4.698;2022-09-17T06:02:42;21.80;;;3.25;;
22072;SDS011;11202;50.916;4.698;2022-09-17T06:05:08;17.63;;;3.08;;
22072;SDS011;11202;50.916;4.698;2022-09-17T06:07:34;17.77;;;2.67;;
22072;SDS011;11202;50.916;4.698;2022-09-17T06:10:01;19.98;;;2.70;;
22072;SDS011;11202;50.916;4.698;2022-09-17T06:12:29;14.25;;;2.33;;
22072;SDS011;11202;50.916;4.698;2022-09-17T06:14:59;16.73;;;2.42;;
22072;SDS011;11202;50.916;4.698;2022-09-17T06:17:26;18.63;;;2.70;;
22072;SDS011;11202;50.916;4.698;2022-09-17T06:19:51;18.02;;;2.80;;
22072;SDS011;11202;50.916;4.698;2022-09-17T06:22:17;17.38;;;2.40;;
22072;SDS011;11202;50.916;4.698;2022-09-17T06:24:44;15.05;;;2.55;;
22072;SDS011;11202;50.916;4.698;2022-09-17T06:27:12;16.55;;;2.47;;
22072;SDS011;11202;50.916;4.698;2022-09-17T06:29:39;14.50;;;2.38;;
22072;SDS011;11202;50.916;4.698;2022-09-17T06:32:06;10.60;;;2.42;;
22072;SDS011;11202;50.916;4.698;2022-09-17T06:37:03;17.27;;;2.70;;
22072;SDS011;11202;50.916;4.698;2022-09-17T06:39:29;14.63;;;3.00;;
22072;SDS011;11202;50.916;4.698;2022-09-17T06:41:56;11.65;;;2.60;;
22072;SDS011;11202;50.916;4.698;2022-09-17T06:44:21;12.13;;;2.38;;
22072;SDS011;11202;50.916;4.698;2022-09-17T06:46:50;12.32;;;2.53;;
22072;SDS011;11202;50.916;4.698;2022-09-17T06:49:16;10.50;;;2.30;;
22072;SDS011;11202;50.916;4.698;2022-09-17T06:51:42;18.10;;;2.45;;
22072;SDS011;11202;50.916;4.698;2022-09-17T06:54:08;9.18;;;2.08;;
22072;SDS011;11202;50.916;4.698;2022-09-17T06:56:36;14.88;;;2.30;;
22072;SDS011;11202;50.916;4.698;2022-09-17T06:59:02;12.32;;;2.30;;
22072;SDS011;11202;50.916;4.698;2022-09-17T07:01:28;18.38;;;2.80;;
22072;SDS011;11202;50.916;4.698;2022-09-17T07:07:22;9.00;;;1.95;;
22072;SDS011;11202;50.916;4.698;2022-09-17T07:23:29;10.63;;;2.50;;
22072;SDS011;11202;50.916;4.698;2022-09-17T07:26:00;10.77;;;2.08;;
22072;SDS011;11202;50.916;4.698;2022-09-17T07:28:29;13.68;;;2.53;;
22072;SDS011;11202;50.916;4.698;2022-09-17T07:30:55;15.38;;;2.90;;
22072;SDS011;11202;50.916;4.698;2022-09-17T07:33:25;10.02;;;2.05;;
22072;SDS011;11202;50.916;4.698;2022-09-17T07:35:55;10.40;;;2.03;;
22072;SDS011;11202;50.916;4.698;2022-09-17T07:38:23;6.97;;;1.70;;
22072;SDS011;11202;50.916;4.698;2022-09-17T07:40:56;14.15;;;2.22;;
22072;SDS011;11202;50.916;4.698;2022-09-17T07:43:24;11.48;;;2.83;;
22072;SDS011;11202;50.916;4.698;2022-09-17T07:45:55;10.40;;;1.95;;
22072;SDS011;11202;50.916;4.698;2022-09-17T07:48:24;14.77;;;2.00;;
22072;SDS011;11202;50.916;4.698;2022-09-17T07:50:54;10.55;;;1.90;;
22072;SDS011;11202;50.916;4.698;2022-09-17T07:53:20;13.07;;;2.17;;
22072;SDS011;11202;50.916;4.698;2022-09-17T07:56:04;11.50;;;1.85;;
22072;SDS011;11202;50.916;4.698;2022-09-17T07:59:12;9.25;;;2.00;;
22072;SDS011;11202;50.916;4.698;2022-09-17T08:01:38;7.50;;;2.10;;
22072;SDS011;11202;50.916;4.698;2022-09-17T08:04:04;13.10;;;1.85;;
22072;SDS011;11202;50.916;4.698;2022-09-17T08:06:34;14.93;;;2.00;;
22072;SDS011;11202;50.916;4.698;2022-09-17T08:09:05;7.63;;;1.65;;
22072;SDS011;11202;50.916;4.698;2022-09-17T08:11:31;8.88;;;1.65;;
22072;SDS011;11202;50.916;4.698;2022-09-17T08:20:27;6.03;;;1.55;;
22072;SDS011;11202;50.916;4.698;2022-09-17T08:22:59;7.07;;;1.75;;
22072;SDS011;11202;50.916;4.698;2022-09-17T08:25:25;6.85;;;1.42;;
22072;SDS011;11202;50.916;4.698;2022-09-17T08:27:54;8.43;;;1.85;;
22072;SDS011;11202;50.916;4.698;2022-09-17T08:30:21;6.85;;;1.45;;
22072;SDS011;11202;50.916;4.698;2022-09-17T08:32:50;14.15;;;1.85;;
22072;SDS011;11202;50.916;4.698;2022-09-17T08:50:13;9.02;;;1.98;;
22072;SDS011;11202;50.916;4.698;2022-09-17T09:06:06;7.82;;;1.80;;
22072;SDS011;11202;50.916;4.698;2022-09-17T09:11:10;9.88;;;1.63;;
22072;SDS011;11202;50.916;4.698;2022-09-17T09:13:41;11.40;;;2.55;;
22072;SDS011;11202;50.916;4.698;2022-09-17T09:16:21;9.65;;;2.20;;
22072;SDS011;11202;50.916;4.698;2022-09-17T09:18:55;11.38;;;2.10;;
22072;SDS011;11202;50.916;4.698;2022-09-17T09:21:32;9.70;;;1.55;;
22072;SDS011;11202;50.916;4.698;2022-09-17T09:24:31;12.57;;;2.40;;
22072;SDS011;11202;50.916;4.698;2022-09-17T09:27:17;9.23;;;2.10;;
22072;SDS011;11202;50.916;4.698;2022-09-17T09:30:00;9.98;;;2.10;;
22072;SDS011;11202;50.916;4.698;2022-09-17T09:35:45;11.88;;;1.77;;
22072;SDS011;11202;50.916;4.698;2022-09-17T09:43:20;5.15;;;1.30;;
22072;SDS011;11202;50.916;4.698;2022-09-17T09:57:29;6.22;;;1.25;;
22072;SDS011;11202;50.916;4.698;2022-09-17T10:00:34;5.43;;;1.15;;
22072;SDS011;11202;50.916;4.698;2022-09-17T10:03:25;6.03;;;1.40;;
22072;SDS011;11202;50.916;4.698;2022-09-17T10:06:06;7.95;;;1.33;;
22072;SDS011;11202;50.916;4.698;2022-09-17T10:08:37;6.60;;;1.85;;
22072;SDS011;11202;50.916;4.698;2022-09-17T10:11:08;9.10;;;1.70;;
22072;SDS011;11202;50.916;4.698;2022-09-17T10:19:40;7.97;;;1.50;;
22072;SDS011;11202;50.916;4.698;2022-09-17T10:22:26;14.35;;;2.22;;
22072;SDS011;11202;50.916;4.698;2022-09-17T10:24:55;7.95;;;1.30;;
22072;SDS011;11202;50.916;4.698;2022-09-17T10:27:25;2.90;;;1.40;;
22072;SDS011;11202;50.916;4.698;2022-09-17T10:30:03;7.25;;;1.10;;
22072;SDS011;11202;50.916;4.698;2022-09-17T10:32:39;3.75;;;0.73;;
22072;SDS011;11202;50.916;4.698;2022-09-17T10:35:23;2.03;;;0.80;;
22072;SDS011;11202;50.916;4.698;2022-09-17T10:37:51;2.95;;;0.90;;
22072;SDS011;11202;50.916;4.698;2022-09-17T10:42:45;3.33;;;0.70;;
22072;SDS011;11202;50.916;4.698;2022-09-17T10:45:28;4.05;;;1.08;;
22072;SDS011;11202;50.916;4.698;2022-09-17T10:47:55;3.35;;;0.88;;
22072;SDS011;11202;50.916;4.698;2022-09-17T10:50:25;2.28;;;0.98;;
22072;SDS011;11202;50.916;4.698;2022-09-17T10:52:53;3.25;;;0.98;;
22072;SDS011;11202;50.916;4.698;2022-09-17T11:00:49;2.75;;;0.80;;
22072;SDS011;11202;50.916;4.698;2022-09-17T11:25:57;4.72;;;0.95;;
22072;SDS011;11202;50.916;4.698;2022-09-17T11:37:22;6.55;;;1.15;;
22072;SDS011;11202;50.916;4.698;2022-09-17T11:45:25;2.95;;;0.80;;
22072;SDS011;11202;50.916;4.698;2022-09-17T11:48:04;4.10;;;0.82;;
22072;SDS011;11202;50.916;4.698;2022-09-17T11:50:46;5.05;;;0.98;;
22072;SDS011;11202;50.916;4.698;2022-09-17T11:56:40;4.10;;;0.95;;
22072;SDS011;11202;50.916;4.698;2022-09-17T12:01:45;8.15;;;1.50;;
22072;SDS011;11202;50.916;4.698;2022-09-17T12:04:36;4.15;;;1.10;;
22072;SDS011;11202;50.916;4.698;2022-09-17T12:07:20;6.20;;;1.20;;
22072;SDS011;11202;50.916;4.698;2022-09-17T12:09:59;7.05;;;1.20;;
22072;SDS011;11202;50.916;4.698;2022-09-17T12:12:43;3.38;;;1.05;;
22072;SDS011;11202;50.916;4.698;2022-09-17T12:15:17;11.23;;;1.38;;
22072;SDS011;11202;50.916;4.698;2022-09-17T12:20:54;5.43;;;1.55;;
22072;SDS011;11202;50.916;4.698;2022-09-17T12:23:43;4.90;;;1.27;;
22072;SDS011;11202;50.916;4.698;2022-09-17T12:29:33;8.43;;;1.48;;
22072;SDS011;11202;50.916;4.698;2022-09-17T12:49:51;12.63;;;1.73;;
22072;SDS011;11202;50.916;4.698;2022-09-17T13:01:06;17.33;;;1.63;;
22072;SDS011;11202;50.916;4.698;2022-09-17T13:03:46;8.67;;;1.40;;
22072;SDS011;11202;50.916;4.698;2022-09-17T13:06:27;11.65;;;1.80;;
22072;SDS011;11202;50.916;4.698;2022-09-17T13:11:53;13.15;;;1.90;;
22072;SDS011;11202;50.916;4.698;2022-09-17T13:17:37;8.00;;;1.77;;
22072;SDS011;11202;50.916;4.698;2022-09-17T13:22:48;9.73;;;2.28;;
22072;SDS011;11202;50.916;4.698;2022-09-17T13:25:17;9.85;;;1.92;;
22072;SDS011;11202;50.916;4.698;2022-09-17T13:27:49;11.43;;;2.00;;
22072;SDS011;11202;50.916;4.698;2022-09-17T13:30:27;11.68;;;2.10;;
22072;SDS011;11202;50.916;4.698;2022-09-17T13:39:05;9.20;;;1.88;;
22072;SDS011;11202;50.916;4.698;2022-09-17T13:41:34;15.63;;;2.17;;
22072;SDS011;11202;50.916;4.698;2022-09-17T13:44:03;18.55;;;2.40;;
22072;SDS011;11202;50.916;4.698;2022-09-17T13:46:33;14.10;;;2.08;;
22072;SDS011;11202;50.916;4.698;2022-09-17T13:49:01;13.05;;;2.35;;
22072;SDS011;11202;50.916;4.698;2022-09-17T13:53:56;10.93;;;2.60;;
22072;SDS011;11202;50.916;4.698;2022-09-17T13:56:28;10.85;;;2.20;;
22072;SDS011;11202;50.916;4.698;2022-09-17T13:59:17;8.70;;;1.92;;
22072;SDS011;11202;50.916;4.698;2022-09-17T14:26:05;9.45;;;1.50;;
22072;SDS011;11202;50.916;4.698;2022-09-17T14:28:43;10.05;;;1.50;;
22072;SDS011;11202;50.916;4.698;2022-09-17T14:31:33;5.43;;;1.55;;
22072;SDS011;11202;50.916;4.698;2022-09-17T14:34:04;3.33;;;1.20;;
22072;SDS011;11202;50.916;4.698;2022-09-17T14:36:31;6.30;;;1.20;;
22072;SDS011;11202;50.916;4.698;2022-09-17T14:39:01;7.65;;;1.20;;
22072;SDS011;11202;50.916;4.698;2022-09-17T14:41:39;6.93;;;0.95;;
22072;SDS011;11202;50.916;4.698;2022-09-17T14:44:10;8.98;;;1.20;;
22072;SDS011;11202;50.916;4.698;2022-09-17T14:46:47;6.70;;;1.40;;
22072;SDS011;11202;50.916;4.698;2022-09-17T14:49:21;4.90;;;0.80;;
22072;SDS011;11202;50.916;4.698;2022-09-17T14:51:56;4.47;;;1.17;;
22072;SDS011;11202;50.916;4.698;2022-09-17T14:54:26;4.22;;;0.90;;
22072;SDS011;11202;50.916;4.698;2022-09-17T15:02:02;3.88;;;1.13;;
22072;SDS011;11202;50.916;4.698;2022-09-17T15:04:45;5.10;;;1.10;;
22072;SDS011;11202;50.916;4.698;2022-09-17T15:07:11;4.18;;;1.20;;
22072;SDS011;11202;50.916;4.698;2022-09-17T15:09:37;5.53;;;1.05;;
22072;SDS011;11202;50.916;4.698;2022-09-17T15:12:03;4.57;;;0.93;;
22072;SDS011;11202;50.916;4.698;2022-09-17T15:14:32;8.75;;;0.90;;
22072;SDS011;11202;50.916;4.698;2022-09-17T15:17:02;3.85;;;1.10;;
22072;SDS011;11202;50.916;4.698;2022-09-17T15:19:44;3.25;;;0.90;;
22072;SDS011;11202;50.916;4.698;2022-09-17T15:22:27;5.55;;;0.80;;
22072;SDS011;11202;50.916;4.698;2022-09-17T15:25:03;9.00;;;1.35;;
22072;SDS011;11202;50.916;4.698;2022-09-17T15:27:42;3.67;;;0.88;;
22072;SDS011;11202;50.916;4.698;2022-09-17T15:30:19;4.97;;;1.00;;
22072;SDS011;11202;50.916;4.698;2022-09-17T15:32:50;9.77;;;1.10;;
22072;SDS011;11202;50.916;4.698;2022-09-17T15:35:19;6.88;;;1.25;;
22072;SDS011;11202;50.916;4.698;2022-09-17T15:37:53;9.63;;;1.45;;
22072;SDS011;11202;50.916;4.698;2022-09-17T15:40:38;5.28;;;1.55;;
22072;SDS011;11202;50.916;4.698;2022-09-17T15:45:37;4.43;;;1.17;;
22072;SDS011;11202;50.916;4.698;2022-09-17T15:48:15;7.28;;;1.60;;
22072;SDS011;11202;50.916;4.698;2022-09-17T15:50:55;6.10;;;1.43;;
22072;SDS011;11202;50.916;4.698;2022-09-17T15:53:23;3.80;;;1.63;;
22072;SDS011;11202;50.916;4.698;2022-09-17T15:55:57;7.03;;;1.30;;
22072;SDS011;11202;50.916;4.698;2022-09-17T15:58:50;4.13;;;1.20;;
22072;SDS011;11202;50.916;4.698;2022-09-17T16:11:22;10.00;;;1.60;;
22072;SDS011;11202;50.916;4.698;2022-09-17T16:13:49;6.43;;;1.73;;
22072;SDS011;11202;50.916;4.698;2022-09-17T16:16:18;6.28;;;1.73;;
22072;SDS011;11202;50.916;4.698;2022-09-17T16:18:48;7.70;;;1.40;;
22072;SDS011;11202;50.916;4.698;2022-09-17T16:21:14;6.55;;;1.65;;
22072;SDS011;11202;50.916;4.698;2022-09-17T16:23:42;9.00;;;1.52;;
22072;SDS011;11202;50.916;4.698;2022-09-17T16:26:11;5.65;;;1.83;;
22072;SDS011;11202;50.916;4.698;2022-09-17T16:28:47;8.20;;;2.15;;
22072;SDS011;11202;50.916;4.698;2022-09-17T16:31:17;7.22;;;2.30;;
22072;SDS011;11202;50.916;4.698;2022-09-17T16:33:43;9.57;;;1.92;;
22072;SDS011;11202;50.916;4.698;2022-09-17T16:36:10;14.60;;;1.92;;
22072;SDS011;11202;50.916;4.698;2022-09-17T16:38:38;12.00;;;2.15;;
22072;SDS011;11202;50.916;4.698;2022-09-17T16:41:04;11.02;;;2.20;;
22072;SDS011;11202;50.916;4.698;2022-09-17T16:43:33;7.75;;;1.50;;
22072;SDS011;11202;50.916;4.698;2022-09-17T16:46:02;9.90;;;1.90;;
22072;SDS011;11202;50.916;4.698;2022-09-17T16:48:31;7.68;;;1.85;;
22072;SDS011;11202;50.916;4.698;2022-09-17T16:50:57;5.90;;;1.27;;
22072;SDS011;11202;50.916;4.698;2022-09-17T16:53:24;9.95;;;1.83;;
22072;SDS011;11202;50.916;4.698;2022-09-17T16:55:49;8.82;;;1.50;;
22072;SDS011;11202;50.916;4.698;2022-09-17T16:58:15;6.65;;;1.88;;
22072;SDS011;11202;50.916;4.698;2022-09-17T17:00:43;10.30;;;1.92;;
22072;SDS011;11202;50.916;4.698;2022-09-17T17:03:12;9.95;;;2.25;;
22072;SDS011;11202;50.916;4.698;2022-09-17T17:05:39;12.18;;;2.08;;
22072;SDS011;11202;50.916;4.698;2022-09-17T17:08:06;10.10;;;2.40;;
22072;SDS011;11202;50.916;4.698;2022-09-17T17:10:33;7.75;;;1.92;;
22072;SDS011;11202;50.916;4.698;2022-09-17T17:13:00;9.13;;;1.90;;
22072;SDS011;11202;50.916;4.698;2022-09-17T17:15:26;12.57;;;2.00;;
22072;SDS011;11202;50.916;4.698;2022-09-17T17:17:55;8.70;;;2.33;;
22072;SDS011;11202;50.916;4.698;2022-09-17T17:20:21;8.73;;;1.77;;
22072;SDS011;11202;50.916;4.698;2022-09-17T17:22:48;10.82;;;2.17;;
22072;SDS011;11202;50.916;4.698;2022-09-17T17:25:16;10.48;;;1.95;;
22072;SDS011;11202;50.916;4.698;2022-09-17T17:27:45;7.87;;;2.37;;
22072;SDS011;11202;50.916;4.698;2022-09-17T17:30:13;9.98;;;2.08;;
22072;SDS011;11202;50.916;4.698;2022-09-17T17:32:41;13.23;;;2.67;;
22072;SDS011;11202;50.916;4.698;2022-09-17T17:35:07;13.05;;;2.50;;
22072;SDS011;11202;50.916;4.698;2022-09-17T17:37:34;10.85;;;2.78;;
22072;SDS011;11202;50.916;4.698;2022-09-17T17:40:00;7.20;;;2.20;;
22072;SDS011;11202;50.916;4.698;2022-09-17T17:42:30;10.93;;;2.95;;
22072;SDS011;11202;50.916;4.698;2022-09-17T17:45:01;8.13;;;2.40;;
22072;SDS011;11202;50.916;4.698;2022-09-17T17:47:27;10.25;;;2.47;;
22072;SDS011;11202;50.916;4.698;2022-09-17T17:49:58;8.73;;;2.17;;
22072;SDS011;11202;50.916;4.698;2022-09-17T17:52:23;9.90;;;2.53;;
22072;SDS011;11202;50.916;4.698;2022-09-17T17:54:49;7.57;;;2.35;;
22072;SDS011;11202;50.916;4.698;2022-09-17T17:57:15;10.00;;;2.60;;
22072;SDS011;11202;50.916;4.698;2022-09-17T17:59:41;12.27;;;2.28;;
22072;SDS011;11202;50.916;4.698;2022-09-17T18:02:08;11.50;;;1.90;;
22072;SDS011;11202;50.916;4.698;2022-09-17T18:04:34;12.10;;;2.38;;
22072;SDS011;11202;50.916;4.698;2022-09-17T18:07:00;11.27;;;2.35;;
22072;SDS011;11202;50.916;4.698;2022-09-17T18:09:28;8.00;;;1.90;;
22072;SDS011;11202;50.916;4.698;2022-09-17T18:11:54;7.57;;;2.10;;
22072;SDS011;11202;50.916;4.698;2022-09-17T18:14:22;9.93;;;3.20;;
22072;SDS011;11202;50.916;4.698;2022-09-17T18:16:50;8.93;;;2.35;;
22072;SDS011;11202;50.916;4.698;2022-09-17T18:19:18;8.52;;;2.20;;
22072;SDS011;11202;50.916;4.698;2022-09-17T18:21:44;14.55;;;3.22;;
22072;SDS011;11202;50.916;4.698;2022-09-17T18:24:12;13.63;;;2.65;;
22072;SDS011;11202;50.916;4.698;2022-09-17T18:26:38;11.30;;;3.05;;
22072;SDS011;11202;50.916;4.698;2022-09-17T18:29:04;13.85;;;3.35;;
22072;SDS011;11202;50.916;4.698;2022-09-17T18:31:31;15.07;;;2.92;;
22072;SDS011;11202;50.916;4.698;2022-09-17T18:34:06;11.20;;;2.92;;
22072;SDS011;11202;50.916;4.698;2022-09-17T18:36:34;11.60;;;2.80;;
22072;SDS011;11202;50.916;4.698;2022-09-17T18:39:04;15.50;;;2.78;;
22072;SDS011;11202;50.916;4.698;2022-09-17T18:41:31;11.40;;;3.10;;
22072;SDS011;11202;50.916;4.698;2022-09-17T18:44:01;11.15;;;3.75;;
22072;SDS011;11202;50.916;4.698;2022-09-17T18:46:28;15.43;;;3.78;;
22072;SDS011;11202;50.916;4.698;2022-09-17T18:48:55;15.70;;;2.97;;
22072;SDS011;11202;50.916;4.698;2022-09-17T18:51:22;15.88;;;2.80;;
22072;SDS011;11202;50.916;4.698;2022-09-17T18:53:49;10.93;;;2.58;;
22072;SDS011;11202;50.916;4.698;2022-09-17T18:56:17;12.10;;;2.83;;
22072;SDS011;11202;50.916;4.698;2022-09-17T18:58:50;15.15;;;3.28;;
22072;SDS011;11202;50.916;4.698;2022-09-17T19:01:18;10.48;;;2.80;;
22072;SDS011;11202;50.916;4.698;2022-09-17T19:03:45;16.17;;;2.83;;
22072;SDS011;11202;50.916;4.698;2022-09-17T19:06:12;7.72;;;2.88;;
22072;SDS011;11202;50.916;4.698;2022-09-17T19:08:39;10.38;;;2.67;;
22072;SDS011;11202;50.916;4.698;2022-09-17T19:11:08;9.50;;;2.80;;
22072;SDS011;11202;50.916;4.698;2022-09-17T19:13:37;10.05;;;2.58;;
22072;SDS011;11202;50.916;4.698;2022-09-17T19:16:07;10.32;;;3.22;;
22072;SDS011;11202;50.916;4.698;2022-09-17T19:18:37;11.05;;;3.03;;
22072;SDS011;11202;50.916;4.698;2022-09-17T19:21:03;15.07;;;2.85;;
22072;SDS011;11202;50.916;4.698;2022-09-17T19:23:33;11.98;;;2.90;;
22072;SDS011;11202;50.916;4.698;2022-09-17T19:26:06;12.32;;;3.17;;
22072;SDS011;11202;50.916;4.698;2022-09-17T19:28:38;10.43;;;3.42;;
22072;SDS011;11202;50.916;4.698;2022-09-17T19:31:05;16.85;;;3.22;;
22072;SDS011;11202;50.916;4.698;2022-09-17T19:33:36;7.95;;;3.08;;
22072;SDS011;11202;50.916;4.698;2022-09-17T19:36:09;12.52;;;3.35;;
22072;SDS011;11202;50.916;4.698;2022-09-17T19:38:36;8.85;;;3.00;;
22072;SDS011;11202;50.916;4.698;2022-09-17T19:41:03;12.52;;;3.63;;
22072;SDS011;11202;50.916;4.698;2022-09-17T19:43:33;13.40;;;3.38;;
22072;SDS011;11202;50.916;4.698;2022-09-17T19:46:03;9.52;;;3.50;;